Time;durP1;ratioP1;P1;durP2;ratioP2;P2;SDS_P1;SDS_P2;PMS_P1;PMS_P2;Temp;Humidity;BMP_temperature;BMP_pressure;BME280_temperature;BME280_humidity;BME280_pressure;Samples;Min_cycle;Max_cycle;Signal;HPM_P1;HPM_P2
2023/12/08 00:01:28;;;;;;;;;14.75;14.50;;;;;7.25;92.42;99856.94;5062452;28;57894;-88
2023/12/08 00:03:54;;;;;;;;;16.75;14.00;;;;;7.24;92.97;99857.88;5058363;27;45433;-89
2023/12/08 00:06:19;;;;;;;;;15.00;12.75;;;;;7.15;93.55;99847.78;5056870;28;45408;-88
2023/12/08 00:08:45;;;;;;;;;15.25;12.50;;;;;7.30;93.27;99861.06;5056710;28;53647;-89
2023/12/08 00:11:13;;;;;;;;;16.25;15.25;;;;;7.30;93.09;99853.13;5059623;28;45260;-88
2023/12/08 00:13:38;;;;;;;;;15.75;15.00;;;;;7.37;93.06;99857.13;5062552;27;45327;-87
2023/12/08 00:16:04;;;;;;;;;21.00;14.75;;;;;7.49;92.84;99854.75;5077735;28;45414;-88
2023/12/08 00:18:29;;;;;;;;;14.25;11.25;;;;;7.46;92.80;99845.19;5079089;28;45403;-86
2023/12/08 00:20:54;;;;;;;;;17.50;15.00;;;;;7.52;92.62;99863.38;5079937;27;45283;-88
2023/12/08 00:23:20;;;;;;;;;13.00;13.00;;;;;7.64;92.40;99873.28;5077182;28;49633;-87
2023/12/08 00:25:45;;;;;;;;;16.25;15.25;;;;;7.64;91.91;99854.75;5059449;28;45253;-89
2023/12/08 00:28:11;;;;;;;;;17.75;17.75;;;;;7.67;92.07;99851.91;5062814;28;45221;-91
2023/12/08 00:30:36;;;;;;;;;14.75;12.75;;;;;7.82;91.39;99857.31;5043433;28;45343;-90
2023/12/08 00:33:04;;;;;;;;;16.25;15.00;;;;;7.87;90.94;99879.94;5060770;28;66793;-91
2023/12/08 00:35:29;;;;;;;;;11.00;10.00;;;;;7.92;91.69;99890.25;5081804;27;45319;-91
2023/12/08 00:37:55;;;;;;;;;16.25;13.00;;;;;7.92;90.98;99875.22;5084849;27;45298;-91
2023/12/08 00:40:20;;;;;;;;;18.25;15.50;;;;;8.04;90.95;99883.41;5086671;27;45306;-90
2023/12/08 00:42:47;;;;;;;;;12.00;12.00;;;;;8.00;90.47;99869.50;5086151;27;45487;-87
2023/12/08 00:45:13;;;;;;;;;13.25;11.75;;;;;8.08;90.53;99869.94;5085569;28;45312;-86
2023/12/08 00:47:38;;;;;;;;;12.75;12.25;;;;;8.05;90.00;99875.38;5064861;28;45271;-88
2023/12/08 00:50:07;;;;;;;;;14.75;12.50;;;;;8.20;90.50;99890.44;5082765;28;45208;-88
2023/12/08 00:52:32;;;;;;;;;14.50;14.50;;;;;8.18;90.14;99881.69;5074791;28;46305;-84
2023/12/08 00:54:57;;;;;;;;;11.25;11.25;;;;;8.14;90.16;99861.63;5072832;28;44670;-87
2023/12/08 00:57:22;;;;;;;;;14.50;12.50;;;;;8.22;90.38;99866.50;5070211;28;50327;-87
2023/12/08 00:59:48;;;;;;;;;11.25;11.25;;;;;8.11;90.35;99837.97;5077380;28;49270;-88
2023/12/08 01:02:13;;;;;;;;;8.50;8.50;;;;;8.40;89.71;99881.34;5082285;28;45356;-86
2023/12/08 01:04:38;;;;;;;;;13.00;11.25;;;;;8.43;89.21;99880.31;5067228;28;60561;-88
2023/12/08 01:07:04;;;;;;;;;10.25;8.00;;;;;8.34;89.24;99871.13;5065628;28;45257;-86
2023/12/08 01:09:29;;;;;;;;;12.00;12.00;;;;;8.50;89.90;99876.38;5062265;27;45378;-87
2023/12/08 01:11:54;;;;;;;;;7.00;7.00;;;;;8.40;88.84;99860.13;5061430;28;45443;-90
2023/12/08 01:14:20;;;;;;;;;9.00;7.00;;;;;8.47;89.30;99877.41;5073526;28;45329;-85
2023/12/08 01:16:45;;;;;;;;;8.25;6.25;;;;;8.45;88.80;99863.38;5083806;27;45336;-84
2023/12/08 01:19:11;;;;;;;;;6.50;6.25;;;;;8.46;89.47;99873.06;5085004;28;45659;-86
2023/12/08 01:21:38;;;;;;;;;7.00;7.00;;;;;8.52;89.66;99882.41;5088885;28;45354;-84
2023/12/08 01:24:04;;;;;;;;;8.75;8.75;;;;;8.55;89.72;99900.78;5084120;28;44749;-86
2023/12/08 01:26:29;;;;;;;;;11.75;7.75;;;;;8.56;89.95;99908.63;5068808;28;45247;-88
2023/12/08 01:28:55;;;;;;;;;8.00;8.00;;;;;8.60;88.86;99904.03;5068503;28;45546;-86
2023/12/08 01:31:21;;;;;;;;;7.00;7.00;;;;;8.63;88.66;99903.84;5065278;28;45165;-88
2023/12/08 01:33:46;;;;;;;;;7.75;7.00;;;;;8.62;88.23;99902.16;5068969;28;45651;-90
2023/12/08 01:36:11;;;;;;;;;8.25;7.00;;;;;8.74;88.92;99905.88;5080855;27;45347;-86
2023/12/08 01:38:37;;;;;;;;;10.25;8.00;;;;;8.76;88.81;99907.47;5062210;28;45481;-87
2023/12/08 01:41:02;;;;;;;;;5.50;5.50;;;;;8.78;88.44;99905.59;5046828;28;51750;-88
2023/12/08 01:43:28;;;;;;;;;11.00;8.50;;;;;8.77;88.05;99900.38;5063945;28;45405;-88
2023/12/08 01:45:56;;;;;;;;;7.00;7.00;;;;;8.81;88.94;99905.41;5081508;27;45389;-85
2023/12/08 01:48:23;;;;;;;;;10.00;8.50;;;;;8.85;88.68;99912.25;5080222;27;45695;-87
2023/12/08 01:50:48;;;;;;;;;6.75;6.75;;;;;8.80;88.14;99901.03;5080646;28;45224;-88
2023/12/08 01:53:14;;;;;;;;;9.50;8.25;;;;;8.90;87.87;99914.59;5078488;28;45231;-89
2023/12/08 01:55:39;;;;;;;;;7.25;7.25;;;;;8.90;88.47;99913.75;5080425;28;45233;-87
2023/12/08 01:58:05;;;;;;;;;9.75;7.75;;;;;8.81;88.43;99886.84;5082562;28;45674;-88
2023/12/08 02:00:30;;;;;;;;;10.75;8.50;;;;;8.85;87.94;99904.28;5079171;27;46153;-90
2023/12/08 02:02:56;;;;;;;;;7.00;4.00;;;;;8.86;88.75;99908.66;5079538;27;45852;-88
2023/12/08 02:05:23;;;;;;;;;14.50;11.25;;;;;8.88;88.29;99907.69;5080426;27;45332;-87
2023/12/08 02:07:48;;;;;;;;;12.25;7.25;;;;;8.90;88.25;99904.00;5082127;28;45598;-89
2023/12/08 02:10:14;;;;;;;;;8.00;7.50;;;;;9.00;87.96;99928.19;5080969;27;45263;-91
2023/12/08 02:12:39;;;;;;;;;8.50;8.00;;;;;8.94;88.58;99917.94;5082533;27;45382;-89
2023/12/08 02:15:05;;;;;;;;;9.00;7.25;;;;;9.02;88.70;99924.47;5079318;28;45531;-89
2023/12/08 02:17:38;;;;;;;;;8.25;8.25;;;;;9.11;87.76;99931.00;5083460;28;45437;-87
2023/12/08 02:20:06;;;;;;;;;6.75;6.75;;;;;9.12;88.74;99938.06;5082157;28;45971;-91
2023/12/08 02:22:33;;;;;;;;;7.00;6.25;;;;;9.12;88.23;99940.72;5084130;28;45265;-88
2023/12/08 02:24:58;;;;;;;;;7.00;7.00;;;;;9.21;87.62;99942.78;5073305;27;45405;-89
2023/12/08 02:27:24;;;;;;;;;7.25;7.25;;;;;9.19;88.19;99947.34;5060169;28;45246;-88
2023/12/08 02:29:49;;;;;;;;;9.00;6.00;;;;;9.20;88.04;99941.06;5058653;28;45268;-89
2023/12/08 02:32:50;;;;;;;;;7.00;5.25;;;;;9.21;88.15;99937.47;5059235;28;45292;-87
2023/12/08 02:35:18;;;;;;;;;6.00;6.00;;;;;9.25;87.22;99944.31;5047363;27;45423;-87
2023/12/08 02:37:46;;;;;;;;;7.50;7.00;;;;;9.18;87.88;99931.50;5058492;27;45334;-87
2023/12/08 02:40:12;;;;;;;;;14.00;6.00;;;;;9.23;88.32;99938.22;5058556;28;46301;-88
2023/12/08 02:42:37;;;;;;;;;8.50;8.00;;;;;9.22;87.80;99941.84;5058350;27;45182;-87
2023/12/08 02:45:03;;;;;;;;;8.00;6.50;;;;;9.23;88.02;99932.06;5058281;27;45358;-89
2023/12/08 02:47:29;;;;;;;;;8.00;8.00;;;;;9.19;87.90;99925.25;5059722;28;45364;-87
2023/12/08 02:49:54;;;;;;;;;7.75;4.50;;;;;9.27;88.43;99938.91;5062289;28;48049;-88
2023/12/08 02:52:19;;;;;;;;;6.00;6.00;;;;;9.27;87.42;99931.81;5059888;28;61723;-87
2023/12/08 02:54:45;;;;;;;;;7.00;7.00;;;;;9.26;88.11;99922.16;5056537;27;45475;-86
2023/12/08 02:57:10;;;;;;;;;6.25;6.00;;;;;9.36;88.19;99941.00;5065031;28;45672;-87
2023/12/08 02:59:35;;;;;;;;;7.75;6.00;;;;;9.28;88.06;99924.69;5078320;28;46254;-87
2023/12/08 03:02:01;;;;;;;;;5.75;5.75;;;;;9.40;87.88;99932.75;5078224;27;45362;-89
2023/12/08 03:04:26;;;;;;;;;8.00;8.00;;;;;9.43;87.58;99932.56;5078081;28;45325;-87
2023/12/08 03:06:52;;;;;;;;;8.25;7.25;;;;;9.40;87.95;99927.47;5079463;28;45330;-88
2023/12/08 03:09:17;;;;;;;;;12.25;7.25;;;;;9.50;86.87;99932.16;5080656;27;67488;-87
2023/12/08 03:11:42;;;;;;;;;7.50;7.50;;;;;9.41;87.92;99923.84;5083053;28;48722;-87
2023/12/08 03:14:07;;;;;;;;;6.75;6.75;;;;;9.38;87.26;99907.28;5082559;28;45365;-87
2023/12/08 03:16:33;;;;;;;;;10.25;8.00;;;;;9.41;87.38;99897.31;5080662;28;45422;-88
2023/12/08 03:18:58;;;;;;;;;8.50;6.75;;;;;9.52;87.32;99925.00;5079432;27;56789;-87
2023/12/08 03:21:24;;;;;;;;;13.00;9.50;;;;;9.45;87.48;99919.19;5079766;28;45181;-92
2023/12/08 03:23:50;;;;;;;;;7.00;7.00;;;;;9.40;87.30;99916.84;5078914;27;45287;-90
2023/12/08 03:26:15;;;;;;;;;13.00;7.75;;;;;9.50;87.36;99932.16;5062267;28;46085;-88
2023/12/08 03:28:41;;;;;;;;;11.25;8.75;;;;;9.51;87.15;99925.94;5060184;28;45347;-91
2023/12/08 03:31:06;;;;;;;;;10.75;8.50;;;;;9.53;87.04;99924.91;5059554;28;45375;-88
2023/12/08 03:33:31;;;;;;;;;18.00;7.00;;;;;9.49;87.12;99923.34;5045696;28;44874;-89
2023/12/08 03:35:57;;;;;;;;;11.50;8.50;;;;;9.51;87.64;99928.59;5077286;27;45334;-87
2023/12/08 03:38:22;;;;;;;;;7.25;7.25;;;;;9.53;87.63;99937.31;5080370;28;46624;-88
2023/12/08 03:40:48;;;;;;;;;11.50;8.50;;;;;9.56;87.51;99942.44;5080693;27;45171;-90
2023/12/08 03:43:13;;;;;;;;;9.00;7.75;;;;;9.52;87.50;99940.91;5082665;28;46472;-87
2023/12/08 03:45:38;;;;;;;;;6.50;6.25;;;;;9.61;87.27;99956.25;5081197;28;45264;-89
2023/12/08 03:48:04;;;;;;;;;9.50;7.25;;;;;9.60;87.83;99954.56;5079941;27;45991;-90
2023/12/08 03:50:29;;;;;;;;;9.00;7.75;;;;;9.61;87.43;99945.63;5080894;28;45377;-88
2023/12/08 03:52:55;;;;;;;;;2.00;1.00;;;;;9.69;86.98;99954.00;5063779;27;45374;-90
2023/12/08 03:55:21;;;;;;;;;7.00;6.00;;;;;9.56;87.48;99942.44;5068062;27;45431;-87
2023/12/08 03:57:48;;;;;;;;;8.50;8.50;;;;;9.73;86.64;99979.38;5061664;28;45348;-87
2023/12/08 04:00:13;;;;;;;;;10.75;9.25;;;;;9.68;88.04;99973.53;5043996;28;45555;-88
2023/12/08 04:02:39;;;;;;;;;7.00;7.00;;;;;9.69;87.56;99981.41;5069332;28;45338;-90
2023/12/08 04:05:05;;;;;;;;;8.25;5.25;;;;;9.76;87.27;99981.84;5069144;27;45556;-90
2023/12/08 04:07:30;;;;;;;;;11.50;9.00;;;;;9.70;87.33;99976.94;5067057;28;46192;-88
2023/12/08 04:09:55;;;;;;;;;8.25;8.25;;;;;9.75;87.52;99996.94;5067999;28;48333;-91
2023/12/08 04:12:21;;;;;;;;;3.00;3.00;;;;;9.74;88.29;100007.66;5064648;28;56269;-90
2023/12/08 04:14:47;;;;;;;;;8.75;7.00;;;;;9.68;88.06;99989.47;5066982;28;45166;-90
2023/12/08 04:17:12;;;;;;;;;14.25;11.00;;;;;9.79;87.75;100007.38;5067086;28;46128;-88
2023/12/08 04:19:38;;;;;;;;;7.75;6.25;;;;;9.81;87.65;100011.66;5069181;28;50355;-88
2023/12/08 04:22:03;;;;;;;;;8.75;6.00;;;;;9.81;87.74;100019.63;5068694;28;45177;-88
2023/12/08 04:24:28;;;;;;;;;14.50;8.00;;;;;9.71;87.68;100016.66;5067062;27;45506;-92
2023/12/08 04:26:54;;;;;;;;;6.25;4.25;;;;;9.69;87.42;100010.59;5061758;28;46253;-87
2023/12/08 04:29:19;;;;;;;;;4.00;4.00;;;;;9.72;87.90;100022.81;5061142;28;51064;-90
2023/12/08 04:31:44;;;;;;;;;13.75;9.75;;;;;9.70;88.29;100008.78;5060330;27;45888;-90
2023/12/08 04:34:10;;;;;;;;;7.50;5.25;;;;;9.83;87.76;100030.13;5062627;28;45795;-88
2023/12/08 04:36:35;;;;;;;;;8.50;6.00;;;;;9.73;87.58;100006.78;5083451;28;45511;-89
2023/12/08 04:39:00;;;;;;;;;5.00;5.00;;;;;9.89;87.29;100029.75;5063737;28;52488;-89
2023/12/08 04:41:26;;;;;;;;;7.00;4.25;;;;;9.84;87.51;100018.56;5085417;28;45436;-88
2023/12/08 04:43:51;;;;;;;;;9.75;5.50;;;;;9.81;86.97;100016.97;5084567;28;44916;-90
2023/12/08 04:46:18;;;;;;;;;7.50;6.00;;;;;9.79;86.96;100018.84;5081273;27;45534;-90
2023/12/08 04:48:43;;;;;;;;;7.75;7.00;;;;;9.90;87.64;100034.13;5084183;27;45482;-87
2023/12/08 04:51:08;;;;;;;;;10.00;6.00;;;;;9.88;87.20;100033.34;5063727;28;45512;-87
2023/12/08 04:53:34;;;;;;;;;14.50;7.25;;;;;9.84;86.81;100038.00;5087535;27;45280;-87
2023/12/08 04:55:59;;;;;;;;;5.50;4.00;;;;;9.77;87.19;100028.72;5087415;28;46305;-89
2023/12/08 04:58:24;;;;;;;;;12.75;8.00;;;;;9.84;87.94;100043.31;5085298;28;51430;-87
2023/12/08 05:00:50;;;;;;;;;9.00;9.00;;;;;9.87;87.10;100042.28;5086150;28;45357;-87
2023/12/08 05:03:16;;;;;;;;;7.50;7.50;;;;;9.92;88.21;100057.00;5063726;27;45552;-88
2023/12/08 05:05:41;;;;;;;;;10.50;10.50;;;;;9.90;87.49;100045.63;5061364;28;45395;-90
2023/12/08 05:08:07;;;;;;;;;13.50;7.00;;;;;9.91;87.27;100057.09;5062957;28;45177;-88
2023/12/08 05:10:32;;;;;;;;;13.75;9.00;;;;;9.94;87.86;100060.41;5061921;28;45384;-87
2023/12/08 05:12:57;;;;;;;;;10.00;7.00;;;;;9.88;88.21;100050.13;5063243;28;45265;-84
2023/12/08 05:15:23;;;;;;;;;8.25;6.50;;;;;9.90;88.21;100050.94;5071382;27;45334;-86
2023/12/08 05:17:49;;;;;;;;;11.00;7.00;;;;;9.94;88.67;100068.38;5067625;27;45413;-89
2023/12/08 05:20:14;;;;;;;;;14.50;8.00;;;;;9.93;87.61;100064.00;5061416;28;45306;-88
2023/12/08 05:22:39;;;;;;;;;14.75;12.00;;;;;9.99;87.53;100068.94;5065204;28;45245;-89
2023/12/08 05:25:05;;;;;;;;;9.50;9.50;;;;;10.01;87.98;100064.38;5078004;27;45410;-90
2023/12/08 05:27:30;;;;;;;;;8.25;8.25;;;;;10.09;87.90;100057.75;5074844;27;45318;-86
2023/12/08 05:29:56;;;;;;;;;10.50;7.00;;;;;9.99;87.07;100037.06;5074228;27;46187;-90
2023/12/08 05:32:21;;;;;;;;;8.75;8.75;;;;;10.09;87.35;100063.91;5053439;28;45509;-88
2023/12/08 05:34:47;;;;;;;;;9.50;8.25;;;;;10.10;87.57;100070.06;5065718;28;56942;-87
2023/12/08 05:37:12;;;;;;;;;8.75;7.50;;;;;10.10;87.32;100054.13;5062513;28;46223;-88
2023/12/08 05:39:38;;;;;;;;;11.75;7.75;;;;;10.07;86.85;100059.63;5060886;28;45367;-91
2023/12/08 05:42:03;;;;;;;;;8.25;6.00;;;;;10.07;87.54;100075.59;5043023;28;45549;-88
2023/12/08 05:44:29;;;;;;;;;10.00;8.25;;;;;10.09;86.61;100068.38;5062849;27;45512;-92
2023/12/08 05:46:54;;;;;;;;;12.75;5.75;;;;;9.98;87.74;100064.56;5063899;28;63808;-88
2023/12/08 05:49:19;;;;;;;;;13.75;7.75;;;;;10.09;87.40;100089.63;5068570;28;45242;-91
2023/12/08 05:51:44;;;;;;;;;11.50;11.25;;;;;10.01;87.46;100072.34;5081055;27;50267;-90
2023/12/08 05:54:10;;;;;;;;;10.25;9.00;;;;;10.05;87.65;100084.50;5087236;28;45684;-91
2023/12/08 05:56:35;;;;;;;;;14.00;10.00;;;;;10.00;88.19;100075.09;5082833;28;45644;-86
2023/12/08 05:59:01;;;;;;;;;10.00;7.00;;;;;10.04;87.43;100076.63;5082707;28;45226;-88
2023/12/08 06:01:26;;;;;;;;;8.75;7.75;;;;;9.92;87.70;100057.00;5072684;27;45269;-84
2023/12/08 06:03:51;;;;;;;;;14.75;12.25;;;;;10.10;87.92;100092.19;5074426;27;45275;-88
2023/12/08 06:06:17;;;;;;;;;7.75;7.75;;;;;10.03;86.82;100089.06;5063405;27;45414;-83
2023/12/08 06:08:42;;;;;;;;;12.25;9.25;;;;;9.98;86.76;100071.69;5058707;28;45178;-87
2023/12/08 06:11:07;;;;;;;;;15.25;12.75;;;;;10.17;86.63;100111.28;5058711;27;45277;-88
2023/12/08 06:13:33;;;;;;;;;12.75;9.75;;;;;10.01;87.08;100088.28;5059695;28;45886;-89
2023/12/08 06:15:58;;;;;;;;;9.50;8.50;;;;;10.11;87.48;100099.19;5059421;28;62137;-90
2023/12/08 06:18:25;;;;;;;;;7.00;7.00;;;;;10.18;86.44;100118.28;5060650;28;45398;-87
2023/12/08 06:20:51;;;;;;;;;7.00;7.00;;;;;10.08;86.35;100099.41;5075177;27;45480;-87
2023/12/08 06:23:16;;;;;;;;;9.50;8.00;;;;;10.15;86.26;100114.00;5079617;28;45409;-86
2023/12/08 06:25:41;;;;;;;;;9.50;7.25;;;;;10.15;85.99;100116.66;5072283;27;58671;-84
2023/12/08 06:28:07;;;;;;;;;11.25;9.25;;;;;10.08;85.86;100104.72;5078149;28;45299;-84
2023/12/08 06:30:32;;;;;;;;;12.50;10.75;;;;;10.19;86.53;100122.66;5078694;28;45312;-87
2023/12/08 06:32:57;;;;;;;;;9.75;8.75;;;;;10.25;86.27;100132.91;5059407;28;46254;-87
2023/12/08 06:35:23;;;;;;;;;10.00;9.00;;;;;10.22;86.24;100118.03;5079149;28;45396;-85
2023/12/08 06:37:50;;;;;;;;;8.75;8.75;;;;;10.30;85.85;100141.47;5063778;28;45312;-85
2023/12/08 06:40:15;;;;;;;;;9.75;9.00;;;;;10.19;85.54;100122.66;5061288;27;45319;-86
2023/12/08 06:42:41;;;;;;;;;13.50;9.25;;;;;10.25;85.39;100139.09;5076525;28;46185;-86
2023/12/08 06:45:07;;;;;;;;;9.50;8.50;;;;;10.16;85.53;100128.16;5088664;27;53052;-84
2023/12/08 06:47:33;;;;;;;;;8.00;7.75;;;;;10.24;85.68;100142.69;5093258;28;45626;-84
2023/12/08 06:49:58;;;;;;;;;8.25;8.25;;;;;10.23;84.72;100145.44;5083390;27;45239;-86
2023/12/08 06:52:24;;;;;;;;;9.25;8.25;;;;;10.19;85.21;100144.75;5061400;28;45463;-85
2023/12/08 06:54:50;;;;;;;;;9.75;8.25;;;;;10.24;85.51;100155.97;5065321;27;45301;-84
2023/12/08 06:57:15;;;;;;;;;10.00;9.00;;;;;10.00;85.80;100121.09;5081885;28;45419;-88
2023/12/08 06:59:40;;;;;;;;;8.50;7.25;;;;;10.17;84.85;100151.97;5077697;28;45458;-90
2023/12/08 07:02:06;;;;;;;;;8.50;7.75;;;;;10.17;86.56;100167.94;5087393;28;46284;-92
2023/12/08 07:04:31;;;;;;;;;9.25;9.25;;;;;10.10;85.95;100168.38;5070534;28;45327;-88
2023/12/08 07:06:57;;;;;;;;;14.00;8.00;;;;;10.18;86.04;100179.41;5090629;28;45350;-91
2023/12/08 07:09:22;;;;;;;;;16.00;8.75;;;;;10.11;85.70;100172.75;5094022;27;45244;-89
2023/12/08 07:11:48;;;;;;;;;11.50;9.25;;;;;9.97;86.47;100177.09;5079903;27;46885;-87
2023/12/08 07:14:13;;;;;;;;;12.25;7.25;;;;;10.01;86.21;100186.56;5088897;27;45393;-91
2023/12/08 07:16:43;;;;;;;;;9.25;8.25;;;;;10.04;86.55;100175.78;5066698;28;45426;-85
2023/12/08 07:19:08;;;;;;;;;13.25;10.50;;;;;9.98;86.58;100168.16;5049973;28;45406;-84
2023/12/08 07:21:35;;;;;;;;;11.75;9.50;;;;;10.08;87.16;100188.88;5079667;28;45331;-89
2023/12/08 07:24:00;;;;;;;;;13.75;12.50;;;;;9.96;86.36;100183.34;5061772;27;45858;-85
2023/12/08 07:26:26;;;;;;;;;9.25;8.00;;;;;10.00;87.49;100198.16;5099935;27;45393;-81
2023/12/08 07:28:52;;;;;;;;;8.25;7.00;;;;;9.99;86.83;100201.75;5081317;27;47956;-81
2023/12/08 07:31:18;;;;;;;;;7.00;7.00;;;;;10.01;86.96;100214.94;5099078;27;45444;-84
2023/12/08 07:33:44;;;;;;;;;11.25;9.00;;;;;10.00;86.84;100214.09;5100075;27;45363;-83
2023/12/08 07:36:10;;;;;;;;;12.25;10.00;;;;;10.01;86.96;100234.41;5108510;27;45292;-88
2023/12/08 07:38:35;;;;;;;;;12.50;7.00;;;;;9.98;87.18;100218.63;5099842;27;45620;-87
2023/12/08 07:41:00;;;;;;;;;12.75;9.25;;;;;9.99;86.83;100225.66;5092607;27;60195;-83
2023/12/08 07:43:26;;;;;;;;;12.25;9.25;;;;;9.98;86.83;100223.97;5108209;27;45439;-83
2023/12/08 07:45:53;;;;;;;;;12.50;10.25;;;;;9.99;87.70;100225.66;5087902;28;45311;-84
2023/12/08 07:48:19;;;;;;;;;12.00;10.00;;;;;10.03;87.04;100227.22;5064691;27;45332;-82
2023/12/08 07:50:44;;;;;;;;;13.00;10.75;;;;;10.00;87.33;100224.72;5080529;28;45881;-80
2023/12/08 07:53:10;;;;;;;;;9.75;8.00;;;;;10.04;86.99;100226.25;5081371;28;45660;-86
2023/12/08 07:55:35;;;;;;;;;10.00;9.00;;;;;10.09;87.58;100235.75;5063123;28;45422;-88
2023/12/08 07:58:00;;;;;;;;;18.75;10.50;;;;;10.16;87.34;100245.09;5082864;28;45397;-86
2023/12/08 08:00:26;;;;;;;;;13.75;10.00;;;;;10.18;86.78;100237.88;5081954;28;45472;-85
2023/12/08 08:02:51;;;;;;;;;11.75;9.50;;;;;10.17;86.45;100237.00;5087543;27;45434;-84
2023/12/08 08:05:17;;;;;;;;;14.00;11.25;;;;;10.24;86.44;100246.34;5086512;27;45560;-92
2023/12/08 08:07:42;;;;;;;;;13.00;10.50;;;;;10.13;86.68;100230.16;5083498;28;45642;-86
2023/12/08 08:10:08;;;;;;;;;13.75;13.00;;;;;10.24;86.84;100258.78;5082102;28;45401;-86
2023/12/08 08:12:33;;;;;;;;;10.75;7.75;;;;;10.17;86.52;100246.78;5050898;28;45471;-89
2023/12/08 08:14:59;;;;;;;;;16.25;10.75;;;;;10.15;86.29;100238.03;5081470;28;45519;-86
2023/12/08 08:17:24;;;;;;;;;14.00;11.75;;;;;10.27;86.36;100253.28;5086768;28;45520;-83
2023/12/08 08:19:49;;;;;;;;;20.00;14.50;;;;;10.26;86.61;100259.53;5085699;27;45691;-89
2023/12/08 08:22:16;;;;;;;;;11.25;10.50;;;;;10.30;86.45;100263.75;5083120;28;45302;-84
2023/12/08 08:24:41;;;;;;;;;14.00;14.00;;;;;10.31;86.51;100265.44;5097810;27;45469;-86
2023/12/08 08:27:06;;;;;;;;;12.00;8.50;;;;;10.27;85.80;100253.28;5070261;28;45339;-88
2023/12/08 08:29:32;;;;;;;;;14.50;10.50;;;;;10.36;85.97;100268.69;5066670;28;45318;-89
2023/12/08 08:31:57;;;;;;;;;18.25;14.75;;;;;10.40;85.75;100270.19;5063274;28;55960;-86
2023/12/08 08:34:22;;;;;;;;;12.50;12.50;;;;;10.44;85.89;100277.06;5067932;28;45255;-88
2023/12/08 08:36:48;;;;;;;;;11.25;9.25;;;;;10.45;86.15;100275.25;5082206;28;45485;-84
2023/12/08 08:39:14;;;;;;;;;17.50;14.75;;;;;10.38;85.74;100265.94;5081893;28;45369;-90
2023/12/08 08:41:42;;;;;;;;;13.50;10.00;;;;;10.42;86.66;100288.75;5084117;28;45463;-85
2023/12/08 08:44:07;;;;;;;;;20.50;14.75;;;;;10.37;85.55;100283.69;5082913;27;45545;-86
2023/12/08 08:46:32;;;;;;;;;19.25;14.00;;;;;10.44;85.88;100297.47;5081489;28;45295;-87
2023/12/08 08:48:58;;;;;;;;;13.50;10.25;;;;;10.42;86.55;100288.75;5083439;27;45953;-89
2023/12/08 08:51:23;;;;;;;;;21.00;15.00;;;;;10.42;86.47;100278.97;5083531;28;44776;-91
2023/12/08 08:53:49;;;;;;;;;20.25;13.75;;;;;10.44;86.44;100287.69;5063101;28;45358;-84
2023/12/08 08:56:15;;;;;;;;;19.75;14.25;;;;;10.41;86.23;100266.59;5064170;28;45695;-86
2023/12/08 08:58:40;;;;;;;;;12.75;11.25;;;;;10.53;85.64;100280.94;5077356;28;46747;-86
2023/12/08 09:01:06;;;;;;;;;14.00;14.00;;;;;10.56;85.19;100276.31;5079073;28;45424;-86
2023/12/08 09:03:31;;;;;;;;;12.00;12.00;;;;;10.54;85.33;100280.84;5059527;28;45723;-87
2023/12/08 09:05:56;;;;;;;;;13.00;12.25;;;;;10.62;84.78;100280.38;5081883;27;49697;-84
2023/12/08 09:08:21;;;;;;;;;22.00;15.25;;;;;10.59;85.49;100273.47;5082970;27;57252;-86
2023/12/08 09:10:47;;;;;;;;;16.25;14.75;;;;;10.57;84.79;100279.81;5079199;27;45393;-83
2023/12/08 09:13:12;;;;;;;;;15.75;9.75;;;;;10.63;85.50;100272.31;5083094;27;45426;-88
2023/12/08 09:15:38;;;;;;;;;22.25;14.25;;;;;10.66;84.74;100262.44;5059639;28;45493;-85
2023/12/08 09:18:03;;;;;;;;;19.50;12.25;;;;;10.70;84.49;100272.81;5082685;28;46248;-85
2023/12/08 09:20:29;;;;;;;;;16.50;10.50;;;;;10.75;84.62;100276.03;5080568;27;45396;-84
2023/12/08 09:22:54;;;;;;;;;15.00;12.25;;;;;10.77;84.45;100273.28;5091328;27;45463;-87
2023/12/08 09:25:19;;;;;;;;;15.75;12.50;;;;;10.86;84.35;100278.03;5099194;27;45330;-85
2023/12/08 09:27:45;;;;;;;;;15.00;13.00;;;;;10.91;83.77;100278.59;5072344;27;64832;-85
2023/12/08 09:30:10;;;;;;;;;17.00;14.50;;;;;10.96;83.31;100284.50;5063892;28;52246;-85
2023/12/08 09:32:35;;;;;;;;;16.50;11.25;;;;;11.04;83.85;100286.66;5072031;27;45948;-85
2023/12/08 09:35:01;;;;;;;;;18.50;13.50;;;;;11.06;83.13;100290.94;5077085;27;45938;-84
2023/12/08 09:37:26;;;;;;;;;19.25;13.25;;;;;11.08;83.19;100285.53;5090765;27;45417;-86
2023/12/08 09:39:52;;;;;;;;;17.50;14.50;;;;;11.18;82.79;100289.31;5081677;27;47031;-84
2023/12/08 09:42:42;;;;;;;;;12.75;11.00;;;;;11.27;82.05;100287.88;5086682;27;45473;-85
2023/12/08 09:45:10;;;;;;;;;16.25;11.50;;;;;11.22;82.42;100290.84;5080681;27;45434;-87
2023/12/08 09:47:35;;;;;;;;;18.25;14.25;;;;;11.28;82.13;100298.41;5058572;28;45410;-82
2023/12/08 09:50:05;;;;;;;;;19.25;12.50;;;;;11.29;82.04;100308.09;5060905;28;45505;-87
2023/12/08 09:52:33;;;;;;;;;18.00;11.00;;;;;11.19;82.03;100286.53;5063649;28;45389;-86
2023/12/08 09:54:59;;;;;;;;;25.33;12.00;;;;;11.34;81.60;100305.19;5058095;28;45370;-88
2023/12/08 09:57:28;;;;;;;;;12.75;11.75;;;;;11.30;81.49;100303.63;5088192;27;46076;-88
2023/12/08 09:59:55;;;;;;;;;14.33;8.67;;;;;11.25;81.36;100313.75;5075997;27;46479;-87
2023/12/08 10:02:21;;;;;;;;;14.25;11.75;;;;;11.29;81.24;100317.91;5084794;27;45562;-86
2023/12/08 10:04:46;;;;;;;;;21.25;13.50;;;;;11.24;81.78;100310.22;5088104;27;45378;-89
2023/12/08 10:07:13;;;;;;;;;12.00;10.75;;;;;11.25;81.54;100311.06;5074769;27;45438;-85
2023/12/08 10:09:41;;;;;;;;;9.75;9.75;;;;;11.25;81.44;100316.41;5093630;27;45262;-86
2023/12/08 10:12:06;;;;;;;;;16.75;12.50;;;;;11.21;81.63;100319.25;5085305;28;45505;-85
2023/12/08 10:14:32;;;;;;;;;14.50;13.00;;;;;11.17;81.69;100312.41;5097425;27;46127;-86
2023/12/08 10:16:57;;;;;;;;;19.00;13.00;;;;;11.22;81.80;100318.31;5078446;27;46481;-85
2023/12/08 10:19:22;;;;;;;;;15.25;12.75;;;;;11.25;81.28;100319.06;5086286;27;53287;-85
2023/12/08 10:22:01;;;;;;;;;16.50;11.75;;;;;11.22;80.98;100301.47;5085850;27;45375;-86
2023/12/08 10:24:30;;;;;;;;;10.75;9.50;;;;;11.33;80.75;100322.06;5087171;27;45856;-85
2023/12/08 10:27:00;;;;;;;;;11.50;8.75;;;;;11.37;80.53;100319.13;5068095;27;46378;-82
2023/12/08 10:29:32;;;;;;;;;11.75;11.00;;;;;11.47;79.58;100316.75;5096854;27;44748;-84
2023/12/08 10:31:58;;;;;;;;;14.75;10.50;;;;;11.51;79.58;100312.94;5085030;27;45485;-87
2023/12/08 10:34:24;;;;;;;;;11.25;11.25;;;;;11.55;79.45;100309.09;5085768;27;45553;-84
2023/12/08 10:36:50;;;;;;;;;13.75;10.25;;;;;11.59;79.57;100292.00;5084789;27;46661;-86
2023/12/08 10:39:19;;;;;;;;;9.50;8.75;;;;;11.70;78.96;100294.78;5063724;27;45332;-87
2023/12/08 10:41:48;;;;;;;;;11.00;7.33;;;;;11.58;78.05;100279.59;5074415;27;45549;-92
2023/12/08 10:44:13;;;;;;;;;14.50;9.00;;;;;11.68;78.00;100272.72;5056873;28;45936;-89
2023/12/08 10:46:38;;;;;;;;;17.50;10.00;;;;;11.71;77.95;100261.88;5080396;27;46337;-88
2023/12/08 10:49:06;;;;;;;;;17.00;11.00;;;;;11.88;77.51;100266.13;5089677;27;45393;-90
2023/12/08 10:51:33;;;;;;;;;10.00;9.00;;;;;12.17;76.45;100298.81;5071044;27;45352;-89
2023/12/08 10:53:59;;;;;;;;;15.50;11.00;;;;;12.22;76.88;100302.03;5081297;27;45491;-88
2023/12/08 10:56:25;;;;;;;;;9.67;9.67;;;;;12.29;76.87;100305.16;5080334;27;46317;-87
2023/12/08 10:59:01;;;;;;;;;10.67;10.00;;;;;12.36;75.83;100290.41;5066921;27;45657;-90
2023/12/08 11:01:32;;;;;;;;;9.00;9.00;;;;;12.51;75.35;100307.22;5095154;27;45290;-88
2023/12/08 11:04:01;;;;;;;;;13.00;8.67;;;;;12.55;74.60;100306.03;5097979;27;45236;-89
2023/12/08 11:06:33;;;;;;;;;6.00;4.00;;;;;12.60;75.05;100303.88;5087863;27;47163;-86
2023/12/08 11:09:06;;;;;;;;;6.67;6.67;;;;;12.53;74.27;100308.81;5090871;27;45358;-89
2023/12/08 11:11:32;;;;;;;;;13.33;11.00;;;;;12.34;74.90;100276.34;5115161;27;45381;-89
2023/12/08 11:14:13;;;;;;;;;8.67;8.67;;;;;12.68;74.45;100310.41;5086526;27;44932;-90
2023/12/08 11:16:48;;;;;;;;;11.33;11.00;;;;;12.36;74.36;100253.94;5086794;27;45524;-93
2023/12/08 11:19:14;;;;;;;;;11.00;7.67;;;;;12.55;74.13;100295.38;5088839;27;45717;-92